createdAt,value
2023-03-30T00:03:50.295Z,12.60
2023-03-30T00:09:10.167Z,13.33
2023-03-30T00:11:38.540Z,13.77
2023-03-30T00:14:06.893Z,14.17
2023-03-30T00:16:35.306Z,13.53
2023-03-30T00:19:03.760Z,15.03
2023-03-30T00:21:32.156Z,14.23
2023-03-30T00:24:00.671Z,14.27
2023-03-30T00:26:30.389Z,13.17
2023-03-30T00:28:58.783Z,14.47
2023-03-30T00:31:27.380Z,14.70
2023-03-30T00:33:56.139Z,14.20
2023-03-30T00:36:26.124Z,13.93
2023-03-30T00:38:54.521Z,13.93
2023-03-30T00:41:23.039Z,14.53
2023-03-30T00:44:02.152Z,13.70
2023-03-30T00:46:32.069Z,14.17
2023-03-30T00:49:05.491Z,13.07
2023-03-30T00:51:36.763Z,14.30
2023-03-30T00:54:08.734Z,13.23
2023-03-30T00:56:37.345Z,13.80
2023-03-30T00:59:07.497Z,14.73
2023-03-30T01:01:39.581Z,14.33
2023-03-30T01:04:11.121Z,14.20
2023-03-30T01:06:43.662Z,14.83
2023-03-30T01:09:12.458Z,14.43
2023-03-30T01:11:41.003Z,15.67
2023-03-30T01:14:13.429Z,15.77
2023-03-30T01:16:51.377Z,15.27
2023-03-30T01:19:44.002Z,15.80
2023-03-30T01:22:42.471Z,15.17
2023-03-30T01:25:40.520Z,14.57
2023-03-30T01:28:24.513Z,14.47
2023-03-30T01:31:25.878Z,13.73
2023-03-30T01:34:12.700Z,14.27
2023-03-30T01:37:19.115Z,14.67
2023-03-30T01:39:56.847Z,14.20
2023-03-30T01:42:35.995Z,14.30
2023-03-30T01:45:14.498Z,13.70
2023-03-30T01:47:53.273Z,14.53
2023-03-30T01:50:26.702Z,14.00
2023-03-30T01:53:01.120Z,13.47
2023-03-30T01:55:36.423Z,14.63
2023-03-30T01:58:08.608Z,14.63
2023-03-30T02:00:38.406Z,13.90
2023-03-30T02:03:11.670Z,13.93
2023-03-30T02:05:42.885Z,15.00
2023-03-30T02:08:18.751Z,14.30
2023-03-30T02:10:49.362Z,14.30
2023-03-30T02:13:20.933Z,15.33
2023-03-30T02:15:54.174Z,14.57
2023-03-30T02:18:22.629Z,14.17
2023-03-30T02:20:51.097Z,14.37
2023-03-30T02:23:22.612Z,14.83
2023-03-30T02:25:52.317Z,14.77
2023-03-30T02:28:20.787Z,15.80
2023-03-30T02:30:49.662Z,14.50
2023-03-30T02:33:31.021Z,14.53
2023-03-30T02:36:14.072Z,14.30
2023-03-30T02:38:57.512Z,14.60
2023-03-30T02:41:49.136Z,13.77
2023-03-30T02:44:28.818Z,13.83
2023-03-30T02:47:08.304Z,14.17
2023-03-30T02:49:57.100Z,13.30
2023-03-30T02:52:38.464Z,13.17
2023-03-30T02:55:16.786Z,13.30
2023-03-30T02:58:13.376Z,13.60
2023-03-30T03:01:05.077Z,13.47
2023-03-30T03:03:48.203Z,13.37
2023-03-30T03:06:20.552Z,14.00
2023-03-30T03:08:55.606Z,15.40
2023-03-30T03:11:28.032Z,14.80
2023-03-30T03:13:58.009Z,14.83
2023-03-30T03:16:27.270Z,14.60
2023-03-30T03:19:16.034Z,14.17
2023-03-30T03:21:46.107Z,13.97
2023-03-30T03:24:17.497Z,13.90
2023-03-30T03:27:04.147Z,14.30
2023-03-30T03:29:43.272Z,12.90
2023-03-30T03:32:12.000Z,13.57
2023-03-30T03:34:45.995Z,13.53
2023-03-30T03:37:15.498Z,12.50
2023-03-30T03:39:46.054Z,12.33
2023-03-30T03:42:16.243Z,13.50
2023-03-30T03:45:00.937Z,12.97
2023-03-30T03:47:29.616Z,15.67
2023-03-30T03:49:58.212Z,12.83
2023-03-30T03:52:26.691Z,14.60
2023-03-30T03:54:55.328Z,14.03
2023-03-30T03:57:24.073Z,12.93
2023-03-30T03:59:53.879Z,12.60
2023-03-30T04:02:24.141Z,13.47
2023-03-30T04:04:54.998Z,13.03
2023-03-30T04:07:25.652Z,13.80
2023-03-30T04:09:54.227Z,13.87
2023-03-30T04:12:48.643Z,13.00
2023-03-30T04:15:40.130Z,13.10
2023-03-30T04:18:41.670Z,13.73
2023-03-30T04:21:29.975Z,13.27
2023-03-30T04:24:17.999Z,14.13
2023-03-30T04:27:18.867Z,13.87
2023-03-30T04:30:06.816Z,13.73
2023-03-30T04:53:04.039Z,14.43
2023-03-30T04:55:52.852Z,13.80
2023-03-30T04:59:15.213Z,13.90
2023-03-30T05:02:22.400Z,14.23
2023-03-30T05:05:04.743Z,13.57
2023-03-30T06:03:45.852Z,15.37
2023-03-30T06:06:15.599Z,14.63
2023-03-30T06:08:47.700Z,14.47
2023-03-30T06:11:19.697Z,14.57
2023-03-30T06:14:00.252Z,14.90
2023-03-30T06:16:30.163Z,15.60
2023-03-30T06:19:00.351Z,15.37
2023-03-30T06:21:29.389Z,16.27
2023-03-30T06:24:35.961Z,15.13
2023-03-30T06:27:04.572Z,15.33
2023-03-30T06:29:33.051Z,15.50
2023-03-30T06:32:01.658Z,16.37
2023-03-30T06:34:50.029Z,16.07
2023-03-30T06:37:20.543Z,15.70
2023-03-30T06:39:50.969Z,15.93
2023-03-30T06:42:19.556Z,16.37
2023-03-30T06:45:09.292Z,15.33
2023-03-30T06:47:39.362Z,15.60
2023-03-30T06:50:10.250Z,15.03
2023-03-30T06:52:59.267Z,14.87
2023-03-30T06:55:33.552Z,14.43
2023-03-30T06:58:02.215Z,14.67
2023-03-30T07:00:31.137Z,14.57
2023-03-30T07:03:30.097Z,15.80
2023-03-30T07:06:18.768Z,16.63
2023-03-30T07:08:49.147Z,15.20
2023-03-30T07:11:23.478Z,15.47
2023-03-30T07:13:55.403Z,16.40
2023-03-30T07:16:23.905Z,15.60
2023-03-30T07:18:52.763Z,16.07
2023-03-30T07:21:22.494Z,16.73
2023-03-30T07:23:52.189Z,15.87
2023-03-30T07:26:31.230Z,17.87
2023-03-30T07:29:06.871Z,19.90
2023-03-30T07:31:37.403Z,19.40
2023-03-30T07:34:07.841Z,15.57
2023-03-30T07:36:42.583Z,15.70
2023-03-30T07:39:11.297Z,14.77
2023-03-30T07:41:41.941Z,15.47
2023-03-30T07:44:10.523Z,15.03
2023-03-30T07:46:39.100Z,15.17
2023-03-30T07:49:08.946Z,15.83
2023-03-30T07:51:37.349Z,15.37
2023-03-30T07:54:21.022Z,14.90
2023-03-30T07:57:02.613Z,15.17
2023-03-30T07:59:32.260Z,15.13
2023-03-30T08:02:13.548Z,15.20
2023-03-30T08:04:49.645Z,15.57
2023-03-30T08:07:27.640Z,14.50
2023-03-30T08:10:05.232Z,15.80
2023-03-30T08:12:34.322Z,15.63
2023-03-30T08:15:02.833Z,14.90
2023-03-30T08:17:31.592Z,15.37
2023-03-30T08:20:01.934Z,15.20
2023-03-30T08:22:30.475Z,15.53
2023-03-30T08:24:59.010Z,16.27
2023-03-30T08:27:28.719Z,15.47
2023-03-30T08:29:57.231Z,15.33
2023-03-30T08:32:25.634Z,15.90
2023-03-30T08:34:55.222Z,16.50
2023-03-30T08:37:23.832Z,16.57
2023-03-30T08:39:52.363Z,17.53
2023-03-30T08:42:54.350Z,15.67
2023-03-30T08:45:22.831Z,16.40
2023-03-30T08:47:53.983Z,17.37
2023-03-30T08:50:31.262Z,17.03
2023-03-30T08:52:59.908Z,15.70
2023-03-30T08:55:33.727Z,16.50
2023-03-30T08:58:10.937Z,15.27
2023-03-30T09:00:45.043Z,16.07
2023-03-30T09:03:20.210Z,15.77
2023-03-30T09:05:54.651Z,16.17
2023-03-30T09:08:27.602Z,15.50
2023-03-30T09:10:59.639Z,17.03
2023-03-30T09:13:32.430Z,15.47
2023-03-30T09:16:11.684Z,16.00
2023-03-30T09:18:42.977Z,16.17
2023-03-30T09:21:13.724Z,15.50
2023-03-30T09:23:42.657Z,17.00
2023-03-30T09:26:22.217Z,16.10
2023-03-30T09:29:00.362Z,15.93
2023-03-30T09:31:35.268Z,16.57
2023-03-30T09:34:08.645Z,16.00
2023-03-30T09:36:44.549Z,16.70
2023-03-30T09:39:18.387Z,16.27
2023-03-30T09:41:58.197Z,16.83
2023-03-30T09:44:32.011Z,16.70
2023-03-30T09:47:02.030Z,15.17
2023-03-30T09:49:39.565Z,16.37
2023-03-30T09:52:09.422Z,15.50
2023-03-30T09:54:39.048Z,15.67
2023-03-30T09:57:22.088Z,15.50
2023-03-30T09:59:53.080Z,15.60
2023-03-30T10:02:22.730Z,15.43
2023-03-30T10:05:03.526Z,15.03
2023-03-30T10:07:37.899Z,16.20
2023-03-30T10:10:18.020Z,16.03
2023-03-30T10:12:47.092Z,16.17
2023-03-30T10:15:22.359Z,15.53
2023-03-30T10:17:56.381Z,17.40
2023-03-30T10:20:28.434Z,14.53
2023-03-30T10:23:01.756Z,17.43
2023-03-30T10:25:33.532Z,17.70
2023-03-30T10:28:04.686Z,16.37
2023-03-30T10:30:35.059Z,16.13
2023-03-30T10:33:04.392Z,16.73
2023-03-30T10:35:37.331Z,16.90
2023-03-30T10:38:07.628Z,16.47
2023-03-30T10:40:38.082Z,15.83
2023-03-30T10:43:13.351Z,17.83
2023-03-30T10:45:48.140Z,17.53
2023-03-30T10:48:30.610Z,17.07
2023-03-30T10:51:08.894Z,17.00
2023-03-30T10:53:48.564Z,16.33
2023-03-30T10:56:27.303Z,17.30
2023-03-30T10:59:14.650Z,17.30
2023-03-30T11:01:56.383Z,17.33
2023-03-30T11:04:30.697Z,16.67
2023-03-30T11:07:00.528Z,17.33
2023-03-30T11:09:34.172Z,17.60
2023-03-30T11:12:06.995Z,16.90
2023-03-30T11:14:44.836Z,18.77
2023-03-30T11:17:22.535Z,16.97
2023-03-30T11:19:56.414Z,17.80
2023-03-30T11:22:35.444Z,17.80
2023-03-30T11:25:05.860Z,17.70
2023-03-30T11:27:40.544Z,16.87
2023-03-30T11:30:17.423Z,18.77
2023-03-30T11:32:54.150Z,20.63
2023-03-30T11:35:31.758Z,18.03
2023-03-30T11:38:04.072Z,18.53
2023-03-30T11:40:42.149Z,17.60
2023-03-30T11:43:13.463Z,18.67
2023-03-30T11:45:47.300Z,18.83
2023-03-30T11:48:29.480Z,17.73
2023-03-30T11:51:10.191Z,19.50
2023-03-30T11:53:52.073Z,17.00
2023-03-30T11:56:28.591Z,18.30
2023-03-30T11:59:05.984Z,17.43
2023-03-30T12:01:51.410Z,18.03
2023-03-30T12:04:27.829Z,18.43
2023-03-30T12:06:59.967Z,17.47
2023-03-30T12:09:33.434Z,17.23
2023-03-30T12:12:16.019Z,17.17
2023-03-30T12:14:53.481Z,17.17
2023-03-30T12:17:42.443Z,17.77
2023-03-30T12:20:26.207Z,18.07
2023-03-30T12:22:59.802Z,18.10
2023-03-30T12:25:51.335Z,19.07
2023-03-30T12:28:29.868Z,18.73
2023-03-30T12:31:08.346Z,17.80
2023-03-30T12:33:45.096Z,18.77
2023-03-30T12:36:34.162Z,18.70
2023-03-30T12:39:05.882Z,19.47
2023-03-30T12:41:43.270Z,17.63
2023-03-30T12:44:49.013Z,17.87
2023-03-30T12:47:34.520Z,17.10
2023-03-30T12:50:19.346Z,17.47
2023-03-30T12:53:01.851Z,18.63
2023-03-30T12:55:44.342Z,18.10
2023-03-30T12:58:29.805Z,18.67
2023-03-30T13:01:16.872Z,17.20
2023-03-30T13:03:52.540Z,20.57
2023-03-30T13:06:27.795Z,19.50
2023-03-30T13:09:25.962Z,19.20
2023-03-30T13:12:25.789Z,29.20
2023-03-30T13:14:59.840Z,19.73
2023-03-30T13:17:28.815Z,18.30
2023-03-30T13:20:29.099Z,18.73
2023-03-30T13:23:07.964Z,18.37
2023-03-30T13:25:44.506Z,18.10
2023-03-30T13:28:52.982Z,19.07
2023-03-30T13:31:41.266Z,19.03
2023-03-30T13:34:19.664Z,18.73
2023-03-30T13:36:57.877Z,17.13
2023-03-30T13:39:41.115Z,18.67
2023-03-30T13:42:40.969Z,17.67
2023-03-30T13:45:32.446Z,17.70
2023-03-30T13:48:09.953Z,19.90
2023-03-30T13:50:38.791Z,18.80
2023-03-30T13:53:11.770Z,17.80
2023-03-30T13:55:43.350Z,18.17
2023-03-30T13:58:17.204Z,18.67
2023-03-30T14:00:49.902Z,19.00
2023-03-30T14:03:34.542Z,19.27
2023-03-30T14:06:08.730Z,22.73
2023-03-30T14:08:40.134Z,23.00
2023-03-30T14:11:18.417Z,25.77
2023-03-30T14:13:52.262Z,27.20
2023-03-30T14:16:23.733Z,31.47
2023-03-30T14:18:52.885Z,37.07
2023-03-30T14:21:24.224Z,22.70
2023-03-30T14:23:54.661Z,18.47
2023-03-30T14:26:26.689Z,17.60
2023-03-30T14:29:02.936Z,17.17
2023-03-30T14:31:40.534Z,16.37
2023-03-30T14:34:24.265Z,29.67
2023-03-30T14:36:52.688Z,19.93
2023-03-30T14:39:24.026Z,20.40
2023-03-30T14:41:53.660Z,18.00
2023-03-30T14:44:25.115Z,18.70
2023-03-30T14:46:56.646Z,19.90
2023-03-30T14:49:27.493Z,18.67
2023-03-30T14:52:02.692Z,19.17
2023-03-30T14:54:31.793Z,18.23
2023-03-30T14:57:02.858Z,18.37
2023-03-30T14:59:37.144Z,18.50
2023-03-30T15:02:18.352Z,32.13
2023-03-30T15:04:46.944Z,19.27
2023-03-30T15:07:17.502Z,19.67
2023-03-30T15:09:47.332Z,19.87
2023-03-30T15:12:22.664Z,22.80
2023-03-30T15:14:56.255Z,22.50
2023-03-30T15:17:28.093Z,20.10
2023-03-30T15:19:59.938Z,21.13
2023-03-30T15:22:31.836Z,20.00
2023-03-30T15:25:03.050Z,21.77
2023-03-30T15:27:32.152Z,27.90
2023-03-30T15:30:02.481Z,28.37
2023-03-30T15:32:35.451Z,29.70
2023-03-30T15:35:16.158Z,27.70
2023-03-30T15:37:55.048Z,29.70
2023-03-30T15:40:37.085Z,27.40
2023-03-30T15:43:16.822Z,32.57
2023-03-30T15:45:53.925Z,26.37
2023-03-30T15:48:25.671Z,26.27
2023-03-30T15:50:57.580Z,26.43
2023-03-30T15:53:43.231Z,24.63
2023-03-30T15:56:19.186Z,22.50
2023-03-30T15:58:47.804Z,23.20
2023-03-30T16:01:17.951Z,22.70
2023-03-30T16:03:54.737Z,20.73
2023-03-30T16:06:23.659Z,21.53
2023-03-30T16:08:52.118Z,22.20
2023-03-30T16:11:20.805Z,25.03
2023-03-30T16:13:50.153Z,26.40
2023-03-30T16:16:19.949Z,23.77
2023-03-30T16:18:48.449Z,24.50
2023-03-30T16:21:18.498Z,23.00
2023-03-30T16:23:46.883Z,23.87
2023-03-30T16:26:15.483Z,25.07
2023-03-30T16:28:43.979Z,23.73
2023-03-30T16:31:18.290Z,23.67
2023-03-30T16:33:48.072Z,23.33
2023-03-30T16:36:18.980Z,23.50
2023-03-30T16:38:48.013Z,22.87
2023-03-30T16:41:20.015Z,23.60
2023-03-30T16:43:48.886Z,23.17
2023-03-30T16:46:19.407Z,23.13
2023-03-30T16:48:49.355Z,24.40
2023-03-30T16:51:18.293Z,26.40
2023-03-30T16:53:47.746Z,25.57
2023-03-30T16:56:18.514Z,24.53
2023-03-30T16:58:47.591Z,25.90
2023-03-30T17:01:18.946Z,25.00
2023-03-30T17:03:49.208Z,25.00
2023-03-30T17:06:17.692Z,27.70
2023-03-30T17:08:46.507Z,25.43
2023-03-30T17:11:14.907Z,24.37
2023-03-30T17:13:43.904Z,24.93
2023-03-30T17:16:14.413Z,24.70
2023-03-30T17:18:43.047Z,24.50
2023-03-30T17:21:16.835Z,23.63
2023-03-30T17:23:48.065Z,23.83
2023-03-30T17:26:16.964Z,24.03
2023-03-30T17:28:46.468Z,25.13
2023-03-30T17:31:17.535Z,26.30
2023-03-30T17:33:46.192Z,24.73
2023-03-30T17:36:19.071Z,26.27
2023-03-30T17:38:48.788Z,25.93
2023-03-30T17:41:19.510Z,26.33
2023-03-30T17:43:49.116Z,25.67
2023-03-30T17:46:19.994Z,25.77
2023-03-30T17:48:51.360Z,25.57
2023-03-30T17:51:21.179Z,27.27
2023-03-30T17:53:49.629Z,27.47
2023-03-30T17:56:18.068Z,27.80
2023-03-30T17:58:46.488Z,27.83
2023-03-30T18:01:16.901Z,31.47
2023-03-30T18:03:45.436Z,29.83
2023-03-30T18:06:14.081Z,30.67
2023-03-30T18:08:44.221Z,30.10
2023-03-30T18:11:12.807Z,27.60
2023-03-30T18:13:41.227Z,26.83
2023-03-30T18:16:13.948Z,26.87
2023-03-30T18:18:42.477Z,26.30
2023-03-30T18:21:12.116Z,26.50
2023-03-30T18:23:40.456Z,27.13
2023-03-30T18:26:13.815Z,27.47
2023-03-30T18:28:44.374Z,25.97
2023-03-30T18:31:13.342Z,25.83
2023-03-30T18:33:41.910Z,25.57
2023-03-30T18:36:13.628Z,26.33
2023-03-30T18:38:42.617Z,25.20
2023-03-30T18:41:14.186Z,24.93
2023-03-30T18:43:42.802Z,26.03
2023-03-30T18:46:13.814Z,24.47
2023-03-30T18:48:42.267Z,23.77
2023-03-30T18:51:12.825Z,23.57
2023-03-30T18:53:41.343Z,30.17
2023-03-30T18:56:13.843Z,28.97
2023-03-30T18:58:43.037Z,27.47
2023-03-30T19:01:13.805Z,24.70
2023-03-30T19:03:42.926Z,23.90
2023-03-30T19:06:16.171Z,24.93
2023-03-30T19:08:44.723Z,22.83
2023-03-30T19:11:20.578Z,22.10
2023-03-30T19:13:49.988Z,22.77
2023-03-30T19:16:19.045Z,22.33
2023-03-30T19:18:49.435Z,22.97
2023-03-30T19:21:18.941Z,24.70
2023-03-30T19:23:47.387Z,24.50
2023-03-30T19:26:17.210Z,26.87
2023-03-30T19:28:45.968Z,35.47
2023-03-30T19:31:16.366Z,37.73
2023-03-30T19:33:44.949Z,30.33
2023-03-30T19:36:13.455Z,25.10
2023-03-30T19:38:44.352Z,25.07
2023-03-30T19:41:12.897Z,27.80
2023-03-30T19:43:43.769Z,30.53
2023-03-30T19:46:12.278Z,30.17
2023-03-30T19:48:40.891Z,27.97
2023-03-30T19:51:09.305Z,26.77
2023-03-30T19:53:38.340Z,34.17
2023-03-30T19:56:11.569Z,35.07
2023-03-30T19:58:40.349Z,34.73
2023-03-30T20:01:10.463Z,49.80
2023-03-30T20:03:39.041Z,32.53
2023-03-30T20:06:11.158Z,33.50
2023-03-30T20:08:40.190Z,32.40
2023-03-30T20:11:09.670Z,31.07
2023-03-30T20:13:38.292Z,31.67
2023-03-30T20:16:07.368Z,32.43
2023-03-30T20:18:40.499Z,30.47
2023-03-30T20:21:08.885Z,34.00
2023-03-30T20:23:37.303Z,34.97
2023-03-30T20:26:05.738Z,36.27
2023-03-30T20:28:34.165Z,36.50
2023-03-30T20:31:03.109Z,39.50
2023-03-30T20:33:34.297Z,34.17
2023-03-30T20:36:04.030Z,31.43
2023-03-30T20:38:32.502Z,33.23
2023-03-30T20:41:04.387Z,30.43
2023-03-30T20:43:38.470Z,30.03
2023-03-30T20:46:15.463Z,30.37
2023-03-30T20:48:45.196Z,29.17
2023-03-30T20:51:16.605Z,29.43
2023-03-30T20:53:45.087Z,28.97
2023-03-30T20:56:13.837Z,27.97
2023-03-30T20:58:42.335Z,27.37
2023-03-30T21:01:19.379Z,27.13
2023-03-30T21:03:50.175Z,26.77
2023-03-30T21:06:23.811Z,27.23
2023-03-30T21:08:52.698Z,29.27
2023-03-30T21:11:22.707Z,28.53
2023-03-30T21:13:51.421Z,26.47
2023-03-30T21:16:20.104Z,26.30
2023-03-30T21:18:48.620Z,27.83
2023-03-30T21:21:17.324Z,26.90
2023-03-30T21:23:47.567Z,25.77
2023-03-30T21:26:18.593Z,27.27
2023-03-30T21:28:47.269Z,37.60
2023-03-30T21:31:17.319Z,31.23
2023-03-30T21:33:45.778Z,32.17
2023-03-30T21:36:14.391Z,31.67
2023-03-30T21:38:42.838Z,42.50
2023-03-30T21:41:14.405Z,33.97
2023-03-30T21:43:44.402Z,30.40
2023-03-30T21:46:14.873Z,29.20
2023-03-30T21:48:45.534Z,27.60
2023-03-30T21:51:16.237Z,26.97
2023-03-30T21:53:46.321Z,26.73
2023-03-30T21:56:17.032Z,24.03
2023-03-30T21:58:45.854Z,24.47
2023-03-30T22:01:14.331Z,26.73
2023-03-30T22:03:45.044Z,24.30
2023-03-30T22:06:16.220Z,25.20
2023-03-30T22:08:46.160Z,24.10
2023-03-30T22:11:17.987Z,24.40
2023-03-30T22:13:48.706Z,25.53
2023-03-30T22:16:19.630Z,25.03
2023-03-30T22:18:48.420Z,25.27
2023-03-30T22:21:18.934Z,29.20
2023-03-30T22:23:47.683Z,28.27
2023-03-30T22:26:17.786Z,27.23
2023-03-30T22:28:46.266Z,31.50
2023-03-30T22:31:16.896Z,32.10
2023-03-30T22:33:45.552Z,31.43
2023-03-30T22:36:19.232Z,33.37
2023-03-30T22:38:48.705Z,30.73
2023-03-30T22:41:23.821Z,36.17
2023-03-30T22:43:53.770Z,31.97
2023-03-30T22:46:23.618Z,34.33
2023-03-30T22:48:52.654Z,29.93
2023-03-30T22:51:26.196Z,27.53
2023-03-30T22:53:56.604Z,32.07
2023-03-30T22:56:27.368Z,31.93
2023-03-30T22:58:56.088Z,30.67
2023-03-30T23:01:24.686Z,29.53
2023-03-30T23:03:53.607Z,28.63
2023-03-30T23:06:22.247Z,27.93
2023-03-30T23:08:52.755Z,30.73
2023-03-30T23:11:22.024Z,41.43
2023-03-30T23:13:52.545Z,31.83
2023-03-30T23:16:21.048Z,29.37
2023-03-30T23:18:49.894Z,28.23
2023-03-30T23:21:21.924Z,27.20
2023-03-30T23:23:50.938Z,27.47
2023-03-30T23:26:19.588Z,32.47
2023-03-30T23:28:48.149Z,35.10
2023-03-30T23:31:19.075Z,30.33
2023-03-30T23:33:47.641Z,29.97
2023-03-30T23:36:17.370Z,30.40
2023-03-30T23:38:46.470Z,29.07
2023-03-30T23:41:17.045Z,29.30
2023-03-30T23:43:45.883Z,26.43
2023-03-30T23:46:15.624Z,26.50
2023-03-30T23:48:45.688Z,27.17
2023-03-30T23:51:14.111Z,25.50
2023-03-30T23:53:42.476Z,26.47
2023-03-30T23:56:13.908Z,27.33
2023-03-30T23:58:42.492Z,25.87
